sensor_id;sensor_type;location;lat;lon;timestamp;temperature;humidity
72883;DHT22;61017;37.812;-122.286;2023-06-01T00:00:59;16.80;86.60
72883;DHT22;61017;37.812;-122.286;2023-06-01T00:02:31;16.80;86.50
72883;DHT22;61017;37.812;-122.286;2023-06-01T00:04:03;16.80;86.50
72883;DHT22;61017;37.812;-122.286;2023-06-01T00:05:34;16.80;86.50
72883;DHT22;61017;37.812;-122.286;2023-06-01T00:07:07;16.80;86.30
72883;DHT22;61017;37.812;-122.286;2023-06-01T00:08:38;16.80;86.30
72883;DHT22;61017;37.812;-122.286;2023-06-01T00:10:11;16.80;86.20
72883;DHT22;61017;37.812;-122.286;2023-06-01T00:11:43;16.80;86.60
72883;DHT22;61017;37.812;-122.286;2023-06-01T00:13:15;16.80;86.50
72883;DHT22;61017;37.812;-122.286;2023-06-01T00:14:46;16.80;86.50
72883;DHT22;61017;37.812;-122.286;2023-06-01T00:16:18;16.70;86.30
72883;DHT22;61017;37.812;-122.286;2023-06-01T00:17:52;16.70;86.30
72883;DHT22;61017;37.812;-122.286;2023-06-01T00:19:24;16.70;86.20
72883;DHT22;61017;37.812;-122.286;2023-06-01T00:20:56;16.80;86.30
72883;DHT22;61017;37.812;-122.286;2023-06-01T00:22:28;16.70;86.00
72883;DHT22;61017;37.812;-122.286;2023-06-01T00:23:59;16.70;86.10
72883;DHT22;61017;37.812;-122.286;2023-06-01T00:25:31;16.70;86.10
72883;DHT22;61017;37.812;-122.286;2023-06-01T00:27:05;16.70;86.00
72883;DHT22;61017;37.812;-122.286;2023-06-01T00:28:37;16.70;86.10
72883;DHT22;61017;37.812;-122.286;2023-06-01T00:30:09;16.80;86.30
72883;DHT22;61017;37.812;-122.286;2023-06-01T00:31:41;16.70;86.40
72883;DHT22;61017;37.812;-122.286;2023-06-01T00:33:12;16.70;86.30
72883;DHT22;61017;37.812;-122.286;2023-06-01T00:34:44;16.80;86.70
72883;DHT22;61017;37.812;-122.286;2023-06-01T00:36:15;16.80;86.50
72883;DHT22;61017;37.812;-122.286;2023-06-01T00:37:47;16.70;86.40
72883;DHT22;61017;37.812;-122.286;2023-06-01T00:39:19;16.80;86.70
72883;DHT22;61017;37.812;-122.286;2023-06-01T00:40:50;16.70;86.40
72883;DHT22;61017;37.812;-122.286;2023-06-01T00:42:22;16.70;86.40
72883;DHT22;61017;37.812;-122.286;2023-06-01T00:43:55;16.80;86.90
72883;DHT22;61017;37.812;-122.286;2023-06-01T00:45:27;16.80;87.10
72883;DHT22;61017;37.812;-122.286;2023-06-01T00:46:59;16.70;87.20
72883;DHT22;61017;37.812;-122.286;2023-06-01T00:48:31;16.80;87.60
72883;DHT22;61017;37.812;-122.286;2023-06-01T00:50:03;16.80;87.70
72883;DHT22;61017;37.812;-122.286;2023-06-01T00:51:34;16.80;87.60
72883;DHT22;61017;37.812;-122.286;2023-06-01T00:53:10;16.80;87.70
72883;DHT22;61017;37.812;-122.286;2023-06-01T00:54:45;16.80;87.90
72883;DHT22;61017;37.812;-122.286;2023-06-01T00:56:17;17.00;90.00
72883;DHT22;61017;37.812;-122.286;2023-06-01T00:57:51;17.40;85.70
72883;DHT22;61017;37.812;-122.286;2023-06-01T00:59:23;18.00;80.30
72883;DHT22;61017;37.812;-122.286;2023-06-01T01:00:55;18.50;75.50
72883;DHT22;61017;37.812;-122.286;2023-06-01T01:02:27;18.90;72.90
72883;DHT22;61017;37.812;-122.286;2023-06-01T01:03:59;19.30;70.40
72883;DHT22;61017;37.812;-122.286;2023-06-01T01:05:30;19.60;68.40
72883;DHT22;61017;37.812;-122.286;2023-06-01T01:07:19;19.80;66.60
72883;DHT22;61017;37.812;-122.286;2023-06-01T01:08:59;20.00;65.50
72883;DHT22;61017;37.812;-122.286;2023-06-01T01:10:50;20.20;63.90
72883;DHT22;61017;37.812;-122.286;2023-06-01T01:12:33;20.40;62.60
72883;DHT22;61017;37.812;-122.286;2023-06-01T01:14:23;20.30;65.60
72883;DHT22;61017;37.812;-122.286;2023-06-01T01:17:45;19.80;65.50
72883;DHT22;61017;37.812;-122.286;2023-06-01T01:21:10;20.30;62.30
72883;DHT22;61017;37.812;-122.286;2023-06-01T01:27:04;20.60;59.70
72883;DHT22;61017;37.812;-122.286;2023-06-01T01:28:40;20.70;59.50
72883;DHT22;61017;37.812;-122.286;2023-06-01T01:30:13;20.80;58.80
72883;DHT22;61017;37.812;-122.286;2023-06-01T01:31:45;20.20;64.70
72883;DHT22;61017;37.812;-122.286;2023-06-01T01:33:19;20.20;62.10
72883;DHT22;61017;37.812;-122.286;2023-06-01T01:34:51;20.30;60.90
72883;DHT22;61017;37.812;-122.286;2023-06-01T01:36:26;20.50;59.80
72883;DHT22;61017;37.812;-122.286;2023-06-01T01:37:59;20.60;59.20
72883;DHT22;61017;37.812;-122.286;2023-06-01T01:39:30;20.70;59.00
72883;DHT22;61017;37.812;-122.286;2023-06-01T01:41:02;20.70;58.50
72883;DHT22;61017;37.812;-122.286;2023-06-01T01:42:34;20.80;58.20
72883;DHT22;61017;37.812;-122.286;2023-06-01T01:44:06;20.80;58.70
72883;DHT22;61017;37.812;-122.286;2023-06-01T01:45:38;20.90;59.20
72883;DHT22;61017;37.812;-122.286;2023-06-01T01:47:36;20.30;65.30
72883;DHT22;61017;37.812;-122.286;2023-06-01T01:51:15;20.60;59.00
72883;DHT22;61017;37.812;-122.286;2023-06-01T01:52:49;20.70;58.60
72883;DHT22;61017;37.812;-122.286;2023-06-01T01:54:22;20.80;58.30
72883;DHT22;61017;37.812;-122.286;2023-06-01T01:55:56;20.80;57.90
72883;DHT22;61017;37.812;-122.286;2023-06-01T01:57:29;20.90;57.50
72883;DHT22;61017;37.812;-122.286;2023-06-01T01:59:02;20.90;57.30
72883;DHT22;61017;37.812;-122.286;2023-06-01T02:00:34;20.70;61.10
72883;DHT22;61017;37.812;-122.286;2023-06-01T02:02:05;20.40;61.70
72883;DHT22;61017;37.812;-122.286;2023-06-01T02:03:37;20.50;59.00
72883;DHT22;61017;37.812;-122.286;2023-06-01T02:05:09;20.60;58.40
72883;DHT22;61017;37.812;-122.286;2023-06-01T02:06:40;20.70;57.90
72883;DHT22;61017;37.812;-122.286;2023-06-01T02:08:12;20.80;57.50
72883;DHT22;61017;37.812;-122.286;2023-06-01T02:09:43;20.90;57.10
72883;DHT22;61017;37.812;-122.286;2023-06-01T02:11:15;20.90;57.00
72883;DHT22;61017;37.812;-122.286;2023-06-01T02:12:48;21.00;57.20
72883;DHT22;61017;37.812;-122.286;2023-06-01T02:14:19;21.00;56.80
72883;DHT22;61017;37.812;-122.286;2023-06-01T02:15:50;20.40;63.60
72883;DHT22;61017;37.812;-122.286;2023-06-01T02:17:22;20.50;59.00
72883;DHT22;61017;37.812;-122.286;2023-06-01T02:18:54;20.60;58.20
72883;DHT22;61017;37.812;-122.286;2023-06-01T02:20:25;20.80;58.00
72883;DHT22;61017;37.812;-122.286;2023-06-01T02:21:57;20.80;57.40
72883;DHT22;61017;37.812;-122.286;2023-06-01T02:23:29;20.90;57.00
72883;DHT22;61017;37.812;-122.286;2023-06-01T02:25:00;21.00;56.70
72883;DHT22;61017;37.812;-122.286;2023-06-01T02:26:32;21.00;56.50
72883;DHT22;61017;37.812;-122.286;2023-06-01T02:28:04;21.10;56.10
72883;DHT22;61017;37.812;-122.286;2023-06-01T02:29:35;21.10;57.40
72883;DHT22;61017;37.812;-122.286;2023-06-01T02:31:07;20.50;63.00
72883;DHT22;61017;37.812;-122.286;2023-06-01T02:32:40;20.50;58.70
72883;DHT22;61017;37.812;-122.286;2023-06-01T02:34:12;20.70;57.90
72883;DHT22;61017;37.812;-122.286;2023-06-01T02:35:43;20.80;57.40
72883;DHT22;61017;37.812;-122.286;2023-06-01T02:37:15;20.90;57.00
72883;DHT22;61017;37.812;-122.286;2023-06-01T02:38:46;21.00;57.40
72883;DHT22;61017;37.812;-122.286;2023-06-01T02:40:18;21.00;56.50
72883;DHT22;61017;37.812;-122.286;2023-06-01T02:41:49;21.10;56.10
72883;DHT22;61017;37.812;-122.286;2023-06-01T02:43:21;21.00;57.60
72883;DHT22;61017;37.812;-122.286;2023-06-01T02:44:53;20.60;61.90
72883;DHT22;61017;37.812;-122.286;2023-06-01T02:46:24;20.50;58.10
72883;DHT22;61017;37.812;-122.286;2023-06-01T02:47:56;20.70;57.70
72883;DHT22;61017;37.812;-122.286;2023-06-01T02:49:27;20.80;57.10
72883;DHT22;61017;37.812;-122.286;2023-06-01T02:50:59;20.90;56.80
72883;DHT22;61017;37.812;-122.286;2023-06-01T02:52:31;21.00;56.50
72883;DHT22;61017;37.812;-122.286;2023-06-01T02:54:05;21.10;56.20
72883;DHT22;61017;37.812;-122.286;2023-06-01T02:55:40;21.10;56.10
72883;DHT22;61017;37.812;-122.286;2023-06-01T02:57:12;21.10;55.70
72883;DHT22;61017;37.812;-122.286;2023-06-01T02:58:43;20.70;59.90
72883;DHT22;61017;37.812;-122.286;2023-06-01T03:00:15;20.50;59.10
72883;DHT22;61017;37.812;-122.286;2023-06-01T03:01:46;20.70;57.60
72883;DHT22;61017;37.812;-122.286;2023-06-01T03:03:18;20.80;57.60
72883;DHT22;61017;37.812;-122.286;2023-06-01T03:04:52;20.90;56.40
72883;DHT22;61017;37.812;-122.286;2023-06-01T03:06:24;21.00;56.20
72883;DHT22;61017;37.812;-122.286;2023-06-01T03:07:55;21.10;56.00
72883;DHT22;61017;37.812;-122.286;2023-06-01T03:09:29;21.00;58.20
72883;DHT22;61017;37.812;-122.286;2023-06-01T03:11:04;20.60;60.60
72883;DHT22;61017;37.812;-122.286;2023-06-01T03:12:36;20.70;57.40
72883;DHT22;61017;37.812;-122.286;2023-06-01T03:14:08;20.80;56.70
72883;DHT22;61017;37.812;-122.286;2023-06-01T03:15:39;21.00;56.50
72883;DHT22;61017;37.812;-122.286;2023-06-01T03:17:11;21.00;56.10
72883;DHT22;61017;37.812;-122.286;2023-06-01T03:18:42;21.10;56.00
72883;DHT22;61017;37.812;-122.286;2023-06-01T03:20:14;21.10;55.70
72883;DHT22;61017;37.812;-122.286;2023-06-01T03:21:49;20.50;61.00
72883;DHT22;61017;37.812;-122.286;2023-06-01T03:23:20;20.60;57.90
72883;DHT22;61017;37.812;-122.286;2023-06-01T03:24:52;20.80;57.20
72883;DHT22;61017;37.812;-122.286;2023-06-01T03:26:23;20.90;56.70
72883;DHT22;61017;37.812;-122.286;2023-06-01T03:27:55;21.00;56.50
72883;DHT22;61017;37.812;-122.286;2023-06-01T03:29:27;21.00;56.10
72883;DHT22;61017;37.812;-122.286;2023-06-01T03:30:58;21.10;55.70
72883;DHT22;61017;37.812;-122.286;2023-06-01T03:32:30;20.80;59.00
72883;DHT22;61017;37.812;-122.286;2023-06-01T03:34:02;20.60;58.90
72883;DHT22;61017;37.812;-122.286;2023-06-01T03:35:36;20.80;57.20
72883;DHT22;61017;37.812;-122.286;2023-06-01T03:37:08;20.90;56.80
72883;DHT22;61017;37.812;-122.286;2023-06-01T03:38:40;21.00;56.30
72883;DHT22;61017;37.812;-122.286;2023-06-01T03:40:11;21.00;55.90
72883;DHT22;61017;37.812;-122.286;2023-06-01T03:41:43;21.10;55.90
72883;DHT22;61017;37.812;-122.286;2023-06-01T03:43:15;21.00;57.30
72883;DHT22;61017;37.812;-122.286;2023-06-01T03:44:47;20.60;60.60
72883;DHT22;61017;37.812;-122.286;2023-06-01T03:46:18;20.70;57.60
72883;DHT22;61017;37.812;-122.286;2023-06-01T03:47:50;20.80;56.90
72883;DHT22;61017;37.812;-122.286;2023-06-01T03:49:21;20.90;56.40
72883;DHT22;61017;37.812;-122.286;2023-06-01T03:50:53;21.00;56.30
72883;DHT22;61017;37.812;-122.286;2023-06-01T03:52:25;21.00;55.90
72883;DHT22;61017;37.812;-122.286;2023-06-01T03:53:57;21.10;55.70
72883;DHT22;61017;37.812;-122.286;2023-06-01T03:55:29;20.60;59.80
72883;DHT22;61017;37.812;-122.286;2023-06-01T03:57:00;20.40;61.50
72883;DHT22;61017;37.812;-122.286;2023-06-01T03:58:32;19.90;62.90
72883;DHT22;61017;37.812;-122.286;2023-06-01T04:00:09;19.50;65.40
72883;DHT22;61017;37.812;-122.286;2023-06-01T04:01:43;19.20;66.20
72883;DHT22;61017;37.812;-122.286;2023-06-01T04:03:15;19.00;67.30
72883;DHT22;61017;37.812;-122.286;2023-06-01T04:04:46;18.80;67.90
72883;DHT22;61017;37.812;-122.286;2023-06-01T04:06:19;18.70;68.80
72883;DHT22;61017;37.812;-122.286;2023-06-01T04:07:52;18.60;69.90
72883;DHT22;61017;37.812;-122.286;2023-06-01T04:09:24;18.50;70.50
72883;DHT22;61017;37.812;-122.286;2023-06-01T04:10:55;18.40;71.50
72883;DHT22;61017;37.812;-122.286;2023-06-01T04:12:27;18.30;72.00
72883;DHT22;61017;37.812;-122.286;2023-06-01T04:13:59;18.20;72.70
72883;DHT22;61017;37.812;-122.286;2023-06-01T04:15:31;18.10;73.00
72883;DHT22;61017;37.812;-122.286;2023-06-01T04:17:02;18.10;73.70
72883;DHT22;61017;37.812;-122.286;2023-06-01T04:18:34;18.00;74.00
72883;DHT22;61017;37.812;-122.286;2023-06-01T04:20:10;18.00;74.40
72883;DHT22;61017;37.812;-122.286;2023-06-01T04:21:41;18.00;75.10
72883;DHT22;61017;37.812;-122.286;2023-06-01T04:23:13;17.90;75.40
72883;DHT22;61017;37.812;-122.286;2023-06-01T04:24:45;17.80;75.80
72883;DHT22;61017;37.812;-122.286;2023-06-01T04:26:16;17.80;76.10
72883;DHT22;61017;37.812;-122.286;2023-06-01T04:27:49;17.80;77.00
72883;DHT22;61017;37.812;-122.286;2023-06-01T04:29:21;17.80;76.80
72883;DHT22;61017;37.812;-122.286;2023-06-01T04:30:52;17.70;77.10
72883;DHT22;61017;37.812;-122.286;2023-06-01T04:32:24;17.70;77.40
72883;DHT22;61017;37.812;-122.286;2023-06-01T04:33:56;17.70;77.70
72883;DHT22;61017;37.812;-122.286;2023-06-01T04:35:28;17.70;78.00
72883;DHT22;61017;37.812;-122.286;2023-06-01T04:36:59;17.60;78.10
72883;DHT22;61017;37.812;-122.286;2023-06-01T04:38:31;17.60;78.20
72883;DHT22;61017;37.812;-122.286;2023-06-01T04:40:03;17.60;78.40
72883;DHT22;61017;37.812;-122.286;2023-06-01T04:41:38;17.60;78.60
72883;DHT22;61017;37.812;-122.286;2023-06-01T04:43:10;17.60;78.90
72883;DHT22;61017;37.812;-122.286;2023-06-01T04:44:42;17.50;79.00
72883;DHT22;61017;37.812;-122.286;2023-06-01T04:46:14;17.50;79.30
72883;DHT22;61017;37.812;-122.286;2023-06-01T04:47:46;17.50;79.40
72883;DHT22;61017;37.812;-122.286;2023-06-01T04:49:17;17.50;79.50
72883;DHT22;61017;37.812;-122.286;2023-06-01T04:50:49;17.50;79.70
72883;DHT22;61017;37.812;-122.286;2023-06-01T04:52:20;17.50;79.80
72883;DHT22;61017;37.812;-122.286;2023-06-01T04:53:53;17.50;80.00
72883;DHT22;61017;37.812;-122.286;2023-06-01T04:55:25;17.50;80.10
72883;DHT22;61017;37.812;-122.286;2023-06-01T04:56:56;17.40;80.10
72883;DHT22;61017;37.812;-122.286;2023-06-01T04:58:28;17.40;80.30
72883;DHT22;61017;37.812;-122.286;2023-06-01T04:59:59;17.40;80.40
72883;DHT22;61017;37.812;-122.286;2023-06-01T05:01:31;17.40;81.30
72883;DHT22;61017;37.812;-122.286;2023-06-01T05:03:05;17.40;80.70
72883;DHT22;61017;37.812;-122.286;2023-06-01T05:04:37;17.40;80.80
72883;DHT22;61017;37.812;-122.286;2023-06-01T05:06:09;17.40;80.90
72883;DHT22;61017;37.812;-122.286;2023-06-01T05:07:41;17.40;81.00
72883;DHT22;61017;37.812;-122.286;2023-06-01T05:09:13;17.40;81.10
72883;DHT22;61017;37.812;-122.286;2023-06-01T05:10:45;17.30;81.00
72883;DHT22;61017;37.812;-122.286;2023-06-01T05:12:16;17.40;81.30
72883;DHT22;61017;37.812;-122.286;2023-06-01T05:13:48;17.40;81.40
72883;DHT22;61017;37.812;-122.286;2023-06-01T05:15:19;17.40;81.40
72883;DHT22;61017;37.812;-122.286;2023-06-01T05:16:51;17.30;81.40
72883;DHT22;61017;37.812;-122.286;2023-06-01T05:18:22;17.30;81.50
72883;DHT22;61017;37.812;-122.286;2023-06-01T05:19:54;17.30;81.60
72883;DHT22;61017;37.812;-122.286;2023-06-01T05:21:26;17.30;81.70
72883;DHT22;61017;37.812;-122.286;2023-06-01T05:22:58;17.30;81.70
72883;DHT22;61017;37.812;-122.286;2023-06-01T05:24:29;17.30;81.80
72883;DHT22;61017;37.812;-122.286;2023-06-01T05:26:01;17.30;81.90
72883;DHT22;61017;37.812;-122.286;2023-06-01T05:27:32;17.30;82.00
72883;DHT22;61017;37.812;-122.286;2023-06-01T05:29:04;17.30;82.10
72883;DHT22;61017;37.812;-122.286;2023-06-01T05:30:36;17.20;82.00
72883;DHT22;61017;37.812;-122.286;2023-06-01T05:32:08;17.30;82.20
72883;DHT22;61017;37.812;-122.286;2023-06-01T05:33:40;17.20;82.20
72883;DHT22;61017;37.812;-122.286;2023-06-01T05:35:11;17.30;82.40
72883;DHT22;61017;37.812;-122.286;2023-06-01T05:36:43;17.20;82.30
72883;DHT22;61017;37.812;-122.286;2023-06-01T05:38:14;17.20;82.50
72883;DHT22;61017;37.812;-122.286;2023-06-01T05:39:46;17.20;82.40
72883;DHT22;61017;37.812;-122.286;2023-06-01T05:41:18;17.20;82.50
72883;DHT22;61017;37.812;-122.286;2023-06-01T05:42:49;17.20;82.60
72883;DHT22;61017;37.812;-122.286;2023-06-01T05:44:21;17.20;82.60
72883;DHT22;61017;37.812;-122.286;2023-06-01T05:45:53;17.20;82.60
72883;DHT22;61017;37.812;-122.286;2023-06-01T05:47:24;17.20;82.70
72883;DHT22;61017;37.812;-122.286;2023-06-01T05:48:56;17.20;82.80
72883;DHT22;61017;37.812;-122.286;2023-06-01T05:50:27;17.20;83.50
72883;DHT22;61017;37.812;-122.286;2023-06-01T05:51:59;17.20;82.80
72883;DHT22;61017;37.812;-122.286;2023-06-01T05:53:30;17.20;82.80
72883;DHT22;61017;37.812;-122.286;2023-06-01T05:55:03;17.10;82.70
72883;DHT22;61017;37.812;-122.286;2023-06-01T05:56:35;17.10;82.90
72883;DHT22;61017;37.812;-122.286;2023-06-01T05:58:06;17.20;83.10
72883;DHT22;61017;37.812;-122.286;2023-06-01T05:59:38;17.10;83.00
72883;DHT22;61017;37.812;-122.286;2023-06-01T06:01:09;17.20;83.20
72883;DHT22;61017;37.812;-122.286;2023-06-01T06:02:43;17.10;83.10
72883;DHT22;61017;37.812;-122.286;2023-06-01T06:04:15;17.10;83.10
72883;DHT22;61017;37.812;-122.286;2023-06-01T06:05:46;17.10;83.20
72883;DHT22;61017;37.812;-122.286;2023-06-01T06:07:18;17.10;83.30
72883;DHT22;61017;37.812;-122.286;2023-06-01T06:08:49;17.10;83.40
72883;DHT22;61017;37.812;-122.286;2023-06-01T06:10:21;17.10;83.50
72883;DHT22;61017;37.812;-122.286;2023-06-01T06:11:52;17.10;83.40
72883;DHT22;61017;37.812;-122.286;2023-06-01T06:13:24;17.10;83.40
72883;DHT22;61017;37.812;-122.286;2023-06-01T06:14:55;17.10;83.60
72883;DHT22;61017;37.812;-122.286;2023-06-01T06:16:27;17.00;83.50
72883;DHT22;61017;37.812;-122.286;2023-06-01T06:17:59;17.10;83.90
72883;DHT22;61017;37.812;-122.286;2023-06-01T06:19:30;17.10;83.80
72883;DHT22;61017;37.812;-122.286;2023-06-01T06:21:22;17.00;84.10
72883;DHT22;61017;37.812;-122.286;2023-06-01T06:22:53;17.10;84.40
72883;DHT22;61017;37.812;-122.286;2023-06-01T06:24:25;17.10;84.30
72883;DHT22;61017;37.812;-122.286;2023-06-01T06:25:56;17.10;84.40
72883;DHT22;61017;37.812;-122.286;2023-06-01T06:27:28;17.00;84.40
72883;DHT22;61017;37.812;-122.286;2023-06-01T06:28:59;17.00;84.40
72883;DHT22;61017;37.812;-122.286;2023-06-01T06:30:31;17.10;84.60
72883;DHT22;61017;37.812;-122.286;2023-06-01T06:32:03;17.10;84.60
72883;DHT22;61017;37.812;-122.286;2023-06-01T06:33:35;17.10;84.70
72883;DHT22;61017;37.812;-122.286;2023-06-01T06:35:07;17.00;84.50
72883;DHT22;61017;37.812;-122.286;2023-06-01T06:36:39;17.00;84.40
72883;DHT22;61017;37.812;-122.286;2023-06-01T06:38:13;17.00;84.40
72883;DHT22;61017;37.812;-122.286;2023-06-01T06:39:47;17.00;84.40
72883;DHT22;61017;37.812;-122.286;2023-06-01T06:41:19;17.00;84.50
72883;DHT22;61017;37.812;-122.286;2023-06-01T06:42:50;17.00;84.60
72883;DHT22;61017;37.812;-122.286;2023-06-01T06:44:22;17.00;84.60
72883;DHT22;61017;37.812;-122.286;2023-06-01T06:45:53;17.00;84.60
72883;DHT22;61017;37.812;-122.286;2023-06-01T06:47:25;17.00;84.60
72883;DHT22;61017;37.812;-122.286;2023-06-01T06:48:59;17.00;84.60
72883;DHT22;61017;37.812;-122.286;2023-06-01T06:50:31;17.00;84.50
72883;DHT22;61017;37.812;-122.286;2023-06-01T06:52:02;17.00;84.60
72883;DHT22;61017;37.812;-122.286;2023-06-01T06:53:34;17.00;84.60
72883;DHT22;61017;37.812;-122.286;2023-06-01T06:55:06;17.00;84.60
72883;DHT22;61017;37.812;-122.286;2023-06-01T06:56:38;17.10;85.10
72883;DHT22;61017;37.812;-122.286;2023-06-01T06:58:10;17.70;80.60
72883;DHT22;61017;37.812;-122.286;2023-06-01T06:59:41;18.10;75.40
72883;DHT22;61017;37.812;-122.286;2023-06-01T07:01:13;18.60;71.80
72883;DHT22;61017;37.812;-122.286;2023-06-01T07:02:45;19.00;69.10
72883;DHT22;61017;37.812;-122.286;2023-06-01T07:04:16;19.40;67.00
72883;DHT22;61017;37.812;-122.286;2023-06-01T07:05:48;19.70;65.40
72883;DHT22;61017;37.812;-122.286;2023-06-01T07:07:19;19.90;64.20
72883;DHT22;61017;37.812;-122.286;2023-06-01T07:08:51;20.00;62.00
72883;DHT22;61017;37.812;-122.286;2023-06-01T07:10:22;20.20;61.00
72883;DHT22;61017;37.812;-122.286;2023-06-01T07:11:54;20.30;60.40
72883;DHT22;61017;37.812;-122.286;2023-06-01T07:13:25;20.30;59.70
72883;DHT22;61017;37.812;-122.286;2023-06-01T07:14:57;20.50;59.00
72883;DHT22;61017;37.812;-122.286;2023-06-01T07:16:28;20.60;58.70
72883;DHT22;61017;37.812;-122.286;2023-06-01T07:18:00;20.60;58.30
72883;DHT22;61017;37.812;-122.286;2023-06-01T07:19:31;20.60;58.10
72883;DHT22;61017;37.812;-122.286;2023-06-01T07:21:03;20.70;57.90
72883;DHT22;61017;37.812;-122.286;2023-06-01T07:22:35;20.70;57.90
72883;DHT22;61017;37.812;-122.286;2023-06-01T07:24:07;20.70;58.00
72883;DHT22;61017;37.812;-122.286;2023-06-01T07:25:39;20.70;58.00
72883;DHT22;61017;37.812;-122.286;2023-06-01T07:27:10;20.70;58.20
72883;DHT22;61017;37.812;-122.286;2023-06-01T07:28:42;20.10;63.30
72883;DHT22;61017;37.812;-122.286;2023-06-01T07:30:14;19.70;67.20
72883;DHT22;61017;37.812;-122.286;2023-06-01T07:31:45;19.80;61.90
72883;DHT22;61017;37.812;-122.286;2023-06-01T07:33:17;20.00;60.80
72883;DHT22;61017;37.812;-122.286;2023-06-01T07:34:49;20.20;59.50
72883;DHT22;61017;37.812;-122.286;2023-06-01T07:36:23;20.30;58.80
72883;DHT22;61017;37.812;-122.286;2023-06-01T07:37:55;20.40;58.20
72883;DHT22;61017;37.812;-122.286;2023-06-01T07:39:27;20.50;57.80
72883;DHT22;61017;37.812;-122.286;2023-06-01T07:40:58;20.50;57.70
72883;DHT22;61017;37.812;-122.286;2023-06-01T07:42:31;20.60;57.20
72883;DHT22;61017;37.812;-122.286;2023-06-01T07:44:02;20.70;56.80
72883;DHT22;61017;37.812;-122.286;2023-06-01T07:45:34;20.80;56.70
72883;DHT22;61017;37.812;-122.286;2023-06-01T07:47:05;20.80;56.50
72883;DHT22;61017;37.812;-122.286;2023-06-01T07:48:37;20.80;56.40
72883;DHT22;61017;37.812;-122.286;2023-06-01T07:50:09;20.90;56.10
72883;DHT22;61017;37.812;-122.286;2023-06-01T07:51:41;20.90;56.00
72883;DHT22;61017;37.812;-122.286;2023-06-01T07:53:13;20.90;55.90
72883;DHT22;61017;37.812;-122.286;2023-06-01T07:54:44;20.90;55.80
72883;DHT22;61017;37.812;-122.286;2023-06-01T07:56:16;21.00;56.10
72883;DHT22;61017;37.812;-122.286;2023-06-01T07:57:52;20.90;56.20
72883;DHT22;61017;37.812;-122.286;2023-06-01T07:59:23;20.90;56.70
72883;DHT22;61017;37.812;-122.286;2023-06-01T08:00:55;20.90;56.70
72883;DHT22;61017;37.812;-122.286;2023-06-01T08:02:27;20.90;57.10
72883;DHT22;61017;37.812;-122.286;2023-06-01T08:03:59;20.30;62.70
72883;DHT22;61017;37.812;-122.286;2023-06-01T08:05:30;19.80;63.70
72883;DHT22;61017;37.812;-122.286;2023-06-01T08:07:02;19.80;61.40
72883;DHT22;61017;37.812;-122.286;2023-06-01T08:08:33;20.10;59.50
72883;DHT22;61017;37.812;-122.286;2023-06-01T08:10:06;20.30;58.80
72883;DHT22;61017;37.812;-122.286;2023-06-01T08:11:37;20.40;58.30
72883;DHT22;61017;37.812;-122.286;2023-06-01T08:13:09;20.50;57.40
72883;DHT22;61017;37.812;-122.286;2023-06-01T08:14:40;20.60;56.90
72883;DHT22;61017;37.812;-122.286;2023-06-01T08:16:12;20.70;56.60
72883;DHT22;61017;37.812;-122.286;2023-06-01T08:17:44;20.80;56.20
72883;DHT22;61017;37.812;-122.286;2023-06-01T08:19:15;20.80;55.90
72883;DHT22;61017;37.812;-122.286;2023-06-01T08:20:47;20.90;55.80
72883;DHT22;61017;37.812;-122.286;2023-06-01T08:22:20;20.90;55.70
72883;DHT22;61017;37.812;-122.286;2023-06-01T08:23:53;20.90;55.70
72883;DHT22;61017;37.812;-122.286;2023-06-01T08:25:24;21.00;55.40
72883;DHT22;61017;37.812;-122.286;2023-06-01T08:26:55;21.00;55.70
72883;DHT22;61017;37.812;-122.286;2023-06-01T08:28:27;21.00;55.50
72883;DHT22;61017;37.812;-122.286;2023-06-01T08:29:59;21.00;55.60
72883;DHT22;61017;37.812;-122.286;2023-06-01T08:31:30;21.00;55.40
72883;DHT22;61017;37.812;-122.286;2023-06-01T08:33:02;21.00;55.40
72883;DHT22;61017;37.812;-122.286;2023-06-01T08:34:33;21.00;55.80
72883;DHT22;61017;37.812;-122.286;2023-06-01T08:36:05;21.00;56.10
72883;DHT22;61017;37.812;-122.286;2023-06-01T08:37:37;20.90;56.20
72883;DHT22;61017;37.812;-122.286;2023-06-01T08:39:22;20.90;56.60
72883;DHT22;61017;37.812;-122.286;2023-06-01T08:40:54;20.80;59.00
72883;DHT22;61017;37.812;-122.286;2023-06-01T08:43:04;20.10;61.80
72883;DHT22;61017;37.812;-122.286;2023-06-01T08:44:40;19.80;62.60
72883;DHT22;61017;37.812;-122.286;2023-06-01T08:46:12;20.00;59.30
72883;DHT22;61017;37.812;-122.286;2023-06-01T08:47:46;20.30;58.50
72883;DHT22;61017;37.812;-122.286;2023-06-01T08:49:18;20.50;57.60
72883;DHT22;61017;37.812;-122.286;2023-06-01T08:50:50;20.60;56.90
72883;DHT22;61017;37.812;-122.286;2023-06-01T08:52:24;20.70;56.50
72883;DHT22;61017;37.812;-122.286;2023-06-01T08:53:57;20.80;56.10
72883;DHT22;61017;37.812;-122.286;2023-06-01T08:55:31;20.80;56.10
72883;DHT22;61017;37.812;-122.286;2023-06-01T08:57:05;20.80;56.10
72883;DHT22;61017;37.812;-122.286;2023-06-01T08:58:37;20.90;55.40
72883;DHT22;61017;37.812;-122.286;2023-06-01T09:00:11;20.90;55.10
72883;DHT22;61017;37.812;-122.286;2023-06-01T09:01:43;21.00;55.00
72883;DHT22;61017;37.812;-122.286;2023-06-01T09:03:15;21.00;55.00
72883;DHT22;61017;37.812;-122.286;2023-06-01T09:04:47;21.00;54.90
72883;DHT22;61017;37.812;-122.286;2023-06-01T09:06:18;21.00;55.00
72883;DHT22;61017;37.812;-122.286;2023-06-01T09:07:51;21.10;54.90
72883;DHT22;61017;37.812;-122.286;2023-06-01T09:09:22;21.10;55.00
72883;DHT22;61017;37.812;-122.286;2023-06-01T09:10:54;21.00;55.10
72883;DHT22;61017;37.812;-122.286;2023-06-01T09:12:27;21.00;54.90
72883;DHT22;61017;37.812;-122.286;2023-06-01T09:13:59;21.00;55.40
72883;DHT22;61017;37.812;-122.286;2023-06-01T09:15:30;21.00;55.60
72883;DHT22;61017;37.812;-122.286;2023-06-01T09:17:02;21.00;55.80
72883;DHT22;61017;37.812;-122.286;2023-06-01T09:18:34;20.70;59.30
72883;DHT22;61017;37.812;-122.286;2023-06-01T09:20:09;20.10;61.40
72883;DHT22;61017;37.812;-122.286;2023-06-01T09:21:58;19.90;61.90
72883;DHT22;61017;37.812;-122.286;2023-06-01T09:23:30;20.20;58.50
72883;DHT22;61017;37.812;-122.286;2023-06-01T09:25:02;20.40;57.80
72883;DHT22;61017;37.812;-122.286;2023-06-01T09:26:34;20.50;57.00
72883;DHT22;61017;37.812;-122.286;2023-06-01T09:28:05;20.60;56.40